Time;durP1;ratioP1;P1;durP2;ratioP2;P2;SDS_P1;SDS_P2;PMS_P1;PMS_P2;Temp;Humidity;BMP_temperature;BMP_pressure;BME280_temperature;BME280_humidity;BME280_pressure;Samples;Min_cycle;Max_cycle;Signal;HPM_P1;HPM_P2
2021/07/08 00:04:54;;;;;;;14.93;8.83;;;;;;;;;;10559644;28;20282;-71
2021/07/08 00:09:58;;;;;;;14.53;9.57;;;;;;;;;;10541938;28;20219;-71
2021/07/08 00:15:00;;;;;;;14.53;9.17;;;;;;;;;;10513948;28;20215;-71
2021/07/08 00:20:08;;;;;;;18.33;9.67;;;;;;;;;;10527327;28;20240;-72
2021/07/08 00:25:12;;;;;;;15.03;9.43;;;;;;;;;;10549262;28;20184;-72
2021/07/08 00:30:15;;;;;;;15.17;9.27;;;;;;;;;;10558083;28;20677;-72
2021/07/08 00:35:20;;;;;;;13.60;9.00;;;;;;;;;;10544951;28;20225;-72
2021/07/08 00:40:23;;;;;;;15.87;9.63;;;;;;;;;;10546518;28;20220;-71
2021/07/08 00:45:26;;;;;;;15.83;10.20;;;;;;;;;;10557227;28;20187;-72
2021/07/08 00:50:35;;;;;;;19.20;10.80;;;;;;;;;;10547107;28;20558;-70
2021/07/08 00:55:37;;;;;;;13.63;8.93;;;;;;;;;;10547807;28;20550;-70
2021/07/08 01:00:40;;;;;;;13.53;7.90;;;;;;;;;;10563484;28;20242;-70
2021/07/08 01:05:45;;;;;;;11.27;7.10;;;;;;;;;;10550500;28;20187;-71
2021/07/08 01:10:49;;;;;;;10.40;6.23;;;;;;;;;;10547872;28;20291;-71
2021/07/08 01:15:52;;;;;;;9.47;6.13;;;;;;;;;;10549714;28;20223;-71
2021/07/08 01:21:01;;;;;;;8.73;5.43;;;;;;;;;;10556163;28;20275;-70
2021/07/08 01:26:05;;;;;;;8.40;5.03;;;;;;;;;;10551713;28;20195;-72
2021/07/08 01:31:08;;;;;;;9.83;5.30;;;;;;;;;;10555244;28;20694;-71
2021/07/08 01:36:11;;;;;;;9.10;4.77;;;;;;;;;;10545686;28;20215;-72
2021/07/08 01:41:15;;;;;;;7.93;4.90;;;;;;;;;;10542633;28;20837;-70
2021/07/08 01:46:18;;;;;;;7.53;4.87;;;;;;;;;;10560955;28;20656;-71
2021/07/08 01:51:26;;;;;;;10.10;5.00;;;;;;;;;;10554117;28;20215;-72
2021/07/08 01:56:30;;;;;;;10.90;5.20;;;;;;;;;;10532106;28;20215;-71
2021/07/08 02:01:32;;;;;;;8.70;4.63;;;;;;;;;;10544008;28;20221;-72
2021/07/08 02:06:35;;;;;;;9.37;4.57;;;;;;;;;;10547143;28;20314;-70
2021/07/08 02:11:39;;;;;;;7.87;4.07;;;;;;;;;;10545951;28;20703;-71
2021/07/08 02:16:41;;;;;;;8.17;3.90;;;;;;;;;;10549743;28;20267;-71
2021/07/08 02:21:44;;;;;;;6.23;3.80;;;;;;;;;;10545020;28;20763;-72
2021/07/08 02:26:48;;;;;;;7.30;3.90;;;;;;;;;;10524694;28;20269;-72
2021/07/08 02:31:52;;;;;;;6.43;3.60;;;;;;;;;;10539749;28;20601;-71
2021/07/08 02:36:54;;;;;;;8.17;3.70;;;;;;;;;;10550775;28;20207;-72
2021/07/08 02:41:58;;;;;;;6.87;3.60;;;;;;;;;;10548803;28;20294;-71
2021/07/08 02:47:01;;;;;;;7.67;4.40;;;;;;;;;;10549242;28;20214;-71
2021/07/08 02:52:04;;;;;;;6.40;3.77;;;;;;;;;;10541928;28;20223;-71
2021/07/08 02:57:08;;;;;;;5.97;3.47;;;;;;;;;;10543190;28;20216;-71
2021/07/08 03:02:10;;;;;;;6.17;3.77;;;;;;;;;;10544727;28;20211;-71
2021/07/08 03:07:13;;;;;;;5.97;3.70;;;;;;;;;;10559457;28;20545;-69
2021/07/08 03:12:17;;;;;;;6.23;3.63;;;;;;;;;;10546208;28;20379;-71
2021/07/08 03:17:19;;;;;;;6.90;3.83;;;;;;;;;;10556238;28;20230;-72
2021/07/08 03:22:22;;;;;;;7.17;4.40;;;;;;;;;;10545294;28;20231;-71
2021/07/08 03:27:26;;;;;;;8.67;4.00;;;;;;;;;;10554115;28;20245;-72
2021/07/08 03:32:29;;;;;;;7.20;4.00;;;;;;;;;;10559139;28;20234;-71
2021/07/08 03:37:31;;;;;;;8.03;4.10;;;;;;;;;;10561357;28;20230;-71
2021/07/08 03:42:36;;;;;;;6.80;4.30;;;;;;;;;;10544512;28;20335;-72
2021/07/08 03:47:38;;;;;;;6.63;3.80;;;;;;;;;;10558289;28;20187;-72
2021/07/08 03:52:42;;;;;;;7.90;4.30;;;;;;;;;;10540587;28;20265;-70
2021/07/08 03:57:55;;;;;;;6.93;4.20;;;;;;;;;;10549049;28;20212;-71
2021/07/08 04:02:59;;;;;;;6.40;3.90;;;;;;;;;;10547023;28;20228;-72
2021/07/08 04:08:02;;;;;;;7.40;3.90;;;;;;;;;;10554201;28;20248;-69
2021/07/08 04:13:07;;;;;;;7.30;4.10;;;;;;;;;;10548045;28;20212;-71
2021/07/08 04:18:10;;;;;;;7.77;3.80;;;;;;;;;;10555243;28;20216;-70
2021/07/08 04:23:13;;;;;;;7.93;3.80;;;;;;;;;;10544562;28;20215;-71
2021/07/08 04:28:17;;;;;;;8.57;4.13;;;;;;;;;;10554718;28;20225;-71
2021/07/08 04:33:20;;;;;;;7.80;4.10;;;;;;;;;;10547440;28;20212;-71
2021/07/08 04:38:22;;;;;;;6.37;3.67;;;;;;;;;;10555491;28;20261;-71
2021/07/08 04:43:26;;;;;;;8.00;3.83;;;;;;;;;;10553654;28;20267;-71
2021/07/08 04:48:29;;;;;;;7.60;4.00;;;;;;;;;;10537584;28;20274;-70
2021/07/08 04:53:32;;;;;;;8.90;4.00;;;;;;;;;;10556602;28;20298;-72
2021/07/08 04:58:35;;;;;;;8.57;4.67;;;;;;;;;;10558142;28;20219;-72
2021/07/08 05:03:38;;;;;;;8.17;5.00;;;;;;;;;;10558721;28;20256;-71
2021/07/08 05:08:41;;;;;;;11.03;6.63;;;;;;;;;;10554123;28;20223;-71
2021/07/08 05:13:45;;;;;;;12.13;6.63;;;;;;;;;;10553907;28;20277;-72
2021/07/08 05:18:47;;;;;;;10.33;6.50;;;;;;;;;;10550195;28;20256;-71
2021/07/08 05:23:52;;;;;;;11.23;7.57;;;;;;;;;;10541349;28;20267;-73
2021/07/08 05:28:56;;;;;;;14.50;8.17;;;;;;;;;;10550448;28;20252;-71
2021/07/08 05:33:59;;;;;;;12.77;8.00;;;;;;;;;;10549284;28;20305;-72
2021/07/08 05:39:02;;;;;;;11.03;7.27;;;;;;;;;;10547008;28;20380;-71
2021/07/08 05:44:06;;;;;;;11.20;7.40;;;;;;;;;;10520734;28;20199;-72
2021/07/08 05:49:08;;;;;;;11.07;7.23;;;;;;;;;;10546936;28;20705;-72
2021/07/08 05:54:11;;;;;;;11.57;8.07;;;;;;;;;;10552236;28;20188;-72
2021/07/08 05:59:15;;;;;;;12.63;8.00;;;;;;;;;;10548161;28;20211;-74
2021/07/08 06:04:18;;;;;;;12.73;8.40;;;;;;;;;;10531772;28;20195;-71
2021/07/08 06:09:20;;;;;;;13.13;8.37;;;;;;;;;;10553752;28;20708;-72
2021/07/08 06:14:24;;;;;;;13.40;8.80;;;;;;;;;;10532824;28;20203;-72
2021/07/08 06:19:27;;;;;;;13.20;8.90;;;;;;;;;;10554588;28;20298;-73
2021/07/08 06:24:29;;;;;;;14.23;9.27;;;;;;;;;;10549913;28;20191;-72
2021/07/08 06:29:33;;;;;;;13.67;8.73;;;;;;;;;;10523758;28;20704;-72
2021/07/08 06:34:36;;;;;;;14.23;9.93;;;;;;;;;;10538068;28;20191;-72
2021/07/08 06:39:39;;;;;;;15.47;10.03;;;;;;;;;;10553151;28;20293;-70
2021/07/08 06:44:42;;;;;;;14.23;9.60;;;;;;;;;;10565450;28;20554;-71
2021/07/08 06:49:45;;;;;;;13.90;10.23;;;;;;;;;;10562303;28;20231;-74
2021/07/08 06:54:47;;;;;;;14.90;10.30;;;;;;;;;;10557442;28;20736;-73
2021/07/08 06:59:51;;;;;;;16.30;10.63;;;;;;;;;;10561801;28;20344;-72
2021/07/08 07:04:54;;;;;;;15.73;10.93;;;;;;;;;;10559651;28;20305;-73
2021/07/08 07:09:56;;;;;;;15.80;10.70;;;;;;;;;;10542740;28;20219;-73
2021/07/08 07:15:00;;;;;;;17.03;11.47;;;;;;;;;;10561652;28;20294;-72
2021/07/08 07:20:06;;;;;;;17.83;12.87;;;;;;;;;;10552741;28;20265;-71
2021/07/08 07:25:09;;;;;;;19.57;13.80;;;;;;;;;;10555608;28;20503;-71
2021/07/08 07:30:14;;;;;;;21.37;15.87;;;;;;;;;;10551923;28;20199;-72
2021/07/08 07:35:17;;;;;;;20.90;14.57;;;;;;;;;;10560561;28;20630;-72
2021/07/08 07:40:20;;;;;;;23.17;16.33;;;;;;;;;;10545323;28;20215;-72
2021/07/08 07:45:24;;;;;;;21.83;15.70;;;;;;;;;;10561736;28;20302;-72
2021/07/08 07:50:32;;;;;;;23.03;16.40;;;;;;;;;;10557641;28;20570;-72
2021/07/08 07:55:37;;;;;;;23.30;16.37;;;;;;;;;;10547697;28;20203;-73
2021/07/08 08:00:41;;;;;;;23.50;16.40;;;;;;;;;;10537038;28;20219;-72
2021/07/08 08:05:57;;;;;;;21.87;16.03;;;;;;;;;;10555975;28;21171;-71
2021/07/08 08:10:59;;;;;;;20.47;15.20;;;;;;;;;;10547239;28;20294;-72
2021/07/08 08:16:06;;;;;;;23.33;16.13;;;;;;;;;;10549674;28;20249;-71
2021/07/08 08:21:09;;;;;;;21.07;16.40;;;;;;;;;;10546412;28;20299;-71
2021/07/08 08:26:11;;;;;;;23.63;17.00;;;;;;;;;;10551996;28;20191;-71
2021/07/08 08:31:15;;;;;;;21.83;16.93;;;;;;;;;;10544552;28;20779;-71
2021/07/08 08:36:18;;;;;;;22.03;16.43;;;;;;;;;;10554979;28;20286;-72
2021/07/08 08:41:20;;;;;;;23.17;17.80;;;;;;;;;;10533023;28;20211;-72
2021/07/08 08:46:24;;;;;;;23.70;17.20;;;;;;;;;;10547806;28;20226;-71
2021/07/08 08:51:28;;;;;;;20.13;15.80;;;;;;;;;;10555012;28;20311;-71
2021/07/08 08:56:31;;;;;;;21.57;15.60;;;;;;;;;;10534050;28;20620;-72
2021/07/08 09:01:35;;;;;;;21.97;16.43;;;;;;;;;;10544934;28;20702;-72
2021/07/08 09:06:38;;;;;;;22.37;17.20;;;;;;;;;;10535130;28;20207;-72
2021/07/08 09:11:42;;;;;;;22.77;17.73;;;;;;;;;;10540406;28;20207;-72
2021/07/08 09:16:46;;;;;;;24.63;20.17;;;;;;;;;;10555429;28;20570;-72
2021/07/08 09:21:51;;;;;;;23.37;19.93;;;;;;;;;;10552376;28;20219;-72
2021/07/08 09:26:55;;;;;;;26.83;21.73;;;;;;;;;;10556087;28;20617;-73
2021/07/08 09:32:00;;;;;;;25.67;20.83;;;;;;;;;;10553542;28;20302;-74
2021/07/08 09:37:05;;;;;;;24.63;19.73;;;;;;;;;;10558400;28;20219;-74
2021/07/08 09:42:08;;;;;;;22.50;18.42;;;;;;;;;;10560106;28;20238;-73
2021/07/08 09:47:20;;;;;;;24.80;19.90;;;;;;;;;;10539113;28;20274;-73
2021/07/08 09:52:23;;;;;;;24.42;19.25;;;;;;;;;;10550467;28;20683;-73
2021/07/08 09:57:40;;;;;;;25.52;20.42;;;;;;;;;;10550704;28;20198;-71
2021/07/08 10:02:46;;;;;;;22.25;19.00;;;;;;;;;;10550240;28;20685;-73
2021/07/08 10:07:49;;;;;;;21.27;18.30;;;;;;;;;;10533254;28;20215;-73
2021/07/08 10:12:52;;;;;;;20.58;17.95;;;;;;;;;;10535394;28;20223;-71
2021/07/08 10:17:59;;;;;;;21.20;17.92;;;;;;;;;;10542449;28;20237;-72
2021/07/08 10:23:02;;;;;;;20.92;17.70;;;;;;;;;;10552953;28;20207;-74
2021/07/08 10:28:05;;;;;;;23.85;18.42;;;;;;;;;;10553112;28;20679;-72
2021/07/08 10:33:10;;;;;;;18.65;16.15;;;;;;;;;;10555581;28;20225;-72
2021/07/08 10:38:31;;;;;;;18.08;15.60;;;;;;;;;;10525288;28;20199;-72
2021/07/08 10:43:35;;;;;;;18.48;16.23;;;;;;;;;;10534266;28;20770;-72
2021/07/08 10:48:55;;;;;;;19.52;16.02;;;;;;;;;;10548323;28;20278;-72
2021/07/08 10:53:57;;;;;;;18.10;15.30;;;;;;;;;;10530239;28;20203;-72
2021/07/08 10:59:12;;;;;;;17.90;14.35;;;;;;;;;;10551285;28;20294;-72
2021/07/08 11:04:16;;;;;;;16.05;14.13;;;;;;;;;;10558033;28;20646;-72
2021/07/08 11:09:20;;;;;;;16.38;14.38;;;;;;;;;;10542972;28;20286;-72
2021/07/08 11:14:24;;;;;;;15.02;13.35;;;;;;;;;;10540822;28;20270;-73
2021/07/08 11:19:36;;;;;;;16.33;13.88;;;;;;;;;;10544676;28;20230;-72
2021/07/08 11:24:47;;;;;;;14.65;12.68;;;;;;;;;;10524196;28;20295;-72
2021/07/08 11:29:50;;;;;;;16.55;14.10;;;;;;;;;;10555394;28;20635;-72
2021/07/08 11:34:57;;;;;;;17.58;15.13;;;;;;;;;;10530980;28;20562;-72
2021/07/08 11:40:01;;;;;;;17.90;15.38;;;;;;;;;;10534381;28;20243;-72
2021/07/08 11:45:05;;;;;;;19.50;16.23;;;;;;;;;;10553890;28;20643;-72
2021/07/08 11:50:20;;;;;;;19.58;16.42;;;;;;;;;;10541253;28;20211;-73
2021/07/08 11:55:28;;;;;;;20.77;16.42;;;;;;;;;;10566049;28;20224;-74
2021/07/08 12:00:32;;;;;;;22.50;17.08;;;;;;;;;;10547927;28;20717;-73
2021/07/08 12:05:36;;;;;;;21.80;17.80;;;;;;;;;;10563729;28;20187;-72
2021/07/08 12:10:42;;;;;;;21.80;16.95;;;;;;;;;;10537338;28;20231;-72
2021/07/08 12:15:45;;;;;;;20.00;15.57;;;;;;;;;;10555413;28;20195;-73
2021/07/08 12:20:49;;;;;;;19.38;15.05;;;;;;;;;;10553961;28;20294;-73
2021/07/08 12:25:51;;;;;;;20.17;15.27;;;;;;;;;;10553518;28;20195;-73
2021/07/08 12:30:57;;;;;;;21.73;15.40;;;;;;;;;;10546650;28;20215;-73
2021/07/08 12:36:01;;;;;;;17.23;12.83;;;;;;;;;;10550765;28;20249;-74
2021/07/08 12:41:04;;;;;;;12.10;8.27;;;;;;;;;;10556965;28;20293;-73
2021/07/08 12:46:09;;;;;;;8.80;5.70;;;;;;;;;;10540868;28;20187;-73
2021/07/08 12:51:13;;;;;;;7.47;3.93;;;;;;;;;;10538582;28;20211;-73
2021/07/08 12:56:16;;;;;;;6.53;3.50;;;;;;;;;;10539332;28;20202;-72
2021/07/08 13:01:23;;;;;;;4.60;2.60;;;;;;;;;;10557514;28;20215;-72
2021/07/08 13:06:28;;;;;;;4.30;2.53;;;;;;;;;;10551360;28;20315;-73
2021/07/08 13:11:31;;;;;;;5.83;3.63;;;;;;;;;;10550666;28;20212;-74
2021/07/08 13:16:34;;;;;;;8.27;4.60;;;;;;;;;;10552469;28;20252;-74
2021/07/08 13:21:42;;;;;;;8.00;3.90;;;;;;;;;;10545947;28;20854;-72
2021/07/08 13:26:45;;;;;;;7.20;4.03;;;;;;;;;;10558071;28;20219;-72
2021/07/08 13:31:48;;;;;;;5.97;3.30;;;;;;;;;;10559567;28;20199;-72
2021/07/08 13:36:53;;;;;;;6.27;3.20;;;;;;;;;;10557919;28;20542;-73
2021/07/08 13:42:03;;;;;;;6.97;4.00;;;;;;;;;;10555438;28;20222;-72
2021/07/08 13:47:06;;;;;;;5.37;3.30;;;;;;;;;;10556989;28;20201;-73
2021/07/08 13:52:11;;;;;;;4.07;2.70;;;;;;;;;;10530936;28;20299;-73
2021/07/08 13:57:15;;;;;;;5.53;3.10;;;;;;;;;;10554000;28;20195;-73
2021/07/08 14:02:17;;;;;;;4.93;3.10;;;;;;;;;;10541470;28;20322;-74
2021/07/08 14:07:21;;;;;;;5.87;3.10;;;;;;;;;;10560270;28;20262;-73
2021/07/08 14:12:24;;;;;;;5.00;2.80;;;;;;;;;;10543349;28;20229;-72
2021/07/08 14:17:26;;;;;;;5.37;2.57;;;;;;;;;;10559100;28;20203;-73
2021/07/08 14:22:30;;;;;;;6.00;2.33;;;;;;;;;;10558166;28;20754;-73
2021/07/08 14:27:33;;;;;;;3.35;1.75;;;;;;;;;;10556689;28;20198;-73
2021/07/08 14:32:37;;;;;;;3.70;1.60;;;;;;;;;;10559793;28;20202;-72
2021/07/08 14:37:41;;;;;;;4.43;2.10;;;;;;;;;;10556324;28;20190;-73
2021/07/08 14:42:49;;;;;;;3.33;1.65;;;;;;;;;;10554666;28;20242;-72
2021/07/08 14:47:52;;;;;;;3.58;2.15;;;;;;;;;;10553496;28;20666;-71
2021/07/08 14:52:56;;;;;;;3.53;1.80;;;;;;;;;;10537140;28;20716;-72
2021/07/08 14:57:58;;;;;;;4.32;1.67;;;;;;;;;;10550444;28;20235;-72
2021/07/08 15:03:01;;;;;;;3.57;1.60;;;;;;;;;;10546867;28;20227;-72
2021/07/08 15:08:05;;;;;;;3.50;1.70;;;;;;;;;;10548679;28;20539;-72
2021/07/08 15:13:08;;;;;;;5.97;2.60;;;;;;;;;;10550873;28;20207;-73
2021/07/08 15:18:11;;;;;;;3.93;1.93;;;;;;;;;;10539942;28;20313;-72
2021/07/08 15:23:15;;;;;;;3.10;1.60;;;;;;;;;;10562662;28;20242;-73
2021/07/08 15:28:17;;;;;;;3.63;1.73;;;;;;;;;;10554364;28;20215;-73
2021/07/08 15:33:21;;;;;;;3.53;1.83;;;;;;;;;;10546873;28;20297;-72
2021/07/08 15:38:26;;;;;;;4.33;2.43;;;;;;;;;;10538748;28;20591;-72
2021/07/08 15:43:28;;;;;;;4.53;2.50;;;;;;;;;;10558691;28;20207;-73
2021/07/08 15:48:31;;;;;;;6.57;3.07;;;;;;;;;;10560129;28;20251;-74
2021/07/08 15:53:35;;;;;;;6.27;3.70;;;;;;;;;;10557560;28;20390;-72
2021/07/08 15:58:37;;;;;;;7.10;3.10;;;;;;;;;;10559906;28;20179;-72
2021/07/08 16:03:40;;;;;;;9.07;4.20;;;;;;;;;;10551041;28;20643;-77
2021/07/08 16:08:45;;;;;;;5.13;1.77;;;;;;;;;;10576474;28;20199;-77
2021/07/08 16:13:47;;;;;;;6.07;3.40;;;;;;;;;;10587964;28;20184;-78
2021/07/08 16:18:50;;;;;;;4.90;2.47;;;;;;;;;;10600313;28;20199;-78
2021/07/08 16:23:54;;;;;;;4.73;2.40;;;;;;;;;;10589645;28;20240;-78
2021/07/08 16:28:57;;;;;;;5.67;2.80;;;;;;;;;;10575000;28;20199;-78
2021/07/08 16:34:00;;;;;;;4.33;2.30;;;;;;;;;;10573068;28;20192;-77
2021/07/08 16:39:06;;;;;;;8.47;3.13;;;;;;;;;;10544469;28;20210;-78
2021/07/08 16:44:08;;;;;;;5.03;2.37;;;;;;;;;;10564631;28;20208;-77
2021/07/08 16:49:17;;;;;;;3.37;1.80;;;;;;;;;;10556497;28;20207;-77
2021/07/08 16:54:21;;;;;;;5.73;2.60;;;;;;;;;;10559784;28;20190;-78
2021/07/08 16:59:24;;;;;;;4.00;2.27;;;;;;;;;;10566591;28;20241;-77
2021/07/08 17:04:27;;;;;;;8.13;4.20;;;;;;;;;;10567076;28;20233;-76
2021/07/08 17:09:35;;;;;;;5.03;2.20;;;;;;;;;;10572834;28;20365;-78
2021/07/08 17:14:38;;;;;;;4.87;2.10;;;;;;;;;;10562776;28;20195;-77
2021/07/08 17:19:41;;;;;;;4.20;1.60;;;;;;;;;;10559684;28;20233;-78
2021/07/08 17:24:45;;;;;;;2.90;1.53;;;;;;;;;;10563726;28;20232;-76
2021/07/08 17:29:49;;;;;;;6.87;3.10;;;;;;;;;;10568664;28;20970;-78
2021/07/08 17:34:51;;;;;;;6.03;2.00;;;;;;;;;;10570164;28;20669;-78
2021/07/08 17:39:55;;;;;;;9.77;5.67;;;;;;;;;;10566854;28;20311;-78
2021/07/08 17:45:16;;;;;;;16.50;7.80;;;;;;;;;;10554523;28;20236;-75
2021/07/08 17:50:19;;;;;;;5.73;2.60;;;;;;;;;;10557896;28;20226;-78
2021/07/08 17:55:23;;;;;;;7.03;2.70;;;;;;;;;;10554964;28;20234;-78
2021/07/08 18:00:26;;;;;;;5.03;2.37;;;;;;;;;;10549872;28;20234;-76
2021/07/08 18:05:28;;;;;;;4.63;2.00;;;;;;;;;;10538678;28;20649;-76
2021/07/08 18:10:33;;;;;;;4.63;1.90;;;;;;;;;;10543186;28;20213;-77
2021/07/08 18:15:35;;;;;;;7.13;2.60;;;;;;;;;;10553929;28;20661;-77
2021/07/08 18:20:38;;;;;;;5.10;2.20;;;;;;;;;;10548422;28;20214;-77
2021/07/08 18:25:42;;;;;;;7.77;2.90;;;;;;;;;;10540902;28;20290;-76
2021/07/08 18:30:45;;;;;;;6.60;2.90;;;;;;;;;;10557917;28;20199;-77
2021/07/08 18:35:47;;;;;;;5.00;2.00;;;;;;;;;;10543268;28;20187;-77
2021/07/08 18:40:51;;;;;;;4.17;2.13;;;;;;;;;;10545616;28;20242;-76
2021/07/08 18:45:54;;;;;;;7.53;3.23;;;;;;;;;;10561881;28;20226;-78
2021/07/08 18:51:09;;;;;;;7.87;3.10;;;;;;;;;;10545055;28;20203;-78
2021/07/08 18:56:13;;;;;;;7.17;2.30;;;;;;;;;;10573699;28;20588;-78
2021/07/08 19:01:17;;;;;;;6.73;2.70;;;;;;;;;;10581379;28;20275;-77
2021/07/08 19:06:20;;;;;;;5.87;2.37;;;;;;;;;;10568250;28;20218;-76
2021/07/08 19:11:25;;;;;;;6.13;2.50;;;;;;;;;;10551447;28;20237;-76
2021/07/08 19:16:27;;;;;;;2.73;1.13;;;;;;;;;;10568669;28;20392;-77
2021/07/08 19:21:30;;;;;;;4.63;2.23;;;;;;;;;;10575520;28;20511;-79
2021/07/08 19:26:35;;;;;;;4.50;2.30;;;;;;;;;;10554437;28;20200;-76
2021/07/08 19:31:38;;;;;;;8.07;3.83;;;;;;;;;;10563544;28;20654;-73
2021/07/08 19:36:41;;;;;;;7.73;2.70;;;;;;;;;;10560407;28;20241;-73
2021/07/08 19:41:57;;;;;;;3.17;1.60;;;;;;;;;;10525304;28;20250;-73
2021/07/08 19:47:00;;;;;;;5.07;1.80;;;;;;;;;;10543995;28;20191;-71
2021/07/08 19:52:03;;;;;;;3.10;1.47;;;;;;;;;;10527470;28;20218;-74
2021/07/08 19:57:07;;;;;;;4.60;1.80;;;;;;;;;;10550515;28;20218;-78
2021/07/08 20:02:10;;;;;;;6.60;1.87;;;;;;;;;;10529489;28;20269;-78
2021/07/08 20:07:13;;;;;;;4.47;1.80;;;;;;;;;;10542053;28;20715;-78
2021/07/08 20:12:17;;;;;;;6.20;2.00;;;;;;;;;;10560258;28;20328;-80
2021/07/08 20:17:20;;;;;;;6.13;2.00;;;;;;;;;;10562860;28;20195;-78
2021/07/08 20:22:22;;;;;;;4.03;1.93;;;;;;;;;;10565028;28;20214;-77
2021/07/08 20:27:26;;;;;;;5.17;1.93;;;;;;;;;;10557297;28;20199;-76
2021/07/08 20:32:29;;;;;;;4.77;2.00;;;;;;;;;;10561241;28;20213;-78
2021/07/08 20:37:32;;;;;;;5.33;2.10;;;;;;;;;;10565802;28;20203;-78
2021/07/08 20:42:36;;;;;;;6.80;2.57;;;;;;;;;;10563529;28;20217;-78
2021/07/08 20:47:39;;;;;;;11.70;5.87;;;;;;;;;;10562607;28;20673;-79
2021/07/08 20:53:02;;;;;;;7.87;2.57;;;;;;;;;;10563811;28;20204;-79
2021/07/08 20:58:06;;;;;;;6.87;2.20;;;;;;;;;;10564693;28;20191;-76
2021/07/08 21:03:12;;;;;;;8.13;2.77;;;;;;;;;;10565860;28;20221;-78
2021/07/08 21:08:15;;;;;;;6.47;2.10;;;;;;;;;;10554732;28;20195;-79
2021/07/08 21:13:19;;;;;;;5.87;2.67;;;;;;;;;;10564696;28;20649;-78
2021/07/08 21:18:23;;;;;;;5.37;2.37;;;;;;;;;;10562227;28;20280;-79
2021/07/08 21:23:42;;;;;;;9.03;3.17;;;;;;;;;;10564401;28;20259;-79
2021/07/08 21:28:46;;;;;;;7.03;2.67;;;;;;;;;;10561303;28;20191;-78
2021/07/08 21:33:49;;;;;;;8.57;3.40;;;;;;;;;;10554990;28;20202;-76
2021/07/08 21:38:53;;;;;;;11.67;2.33;;;;;;;;;;10545079;28;20619;-78
2021/07/08 21:43:57;;;;;;;6.50;1.80;;;;;;;;;;10551921;28;20695;-77
2021/07/08 21:48:59;;;;;;;7.77;1.73;;;;;;;;;;10532828;28;20281;-77
2021/07/08 21:54:04;;;;;;;8.67;2.57;;;;;;;;;;10540316;28;20532;-75
2021/07/08 21:59:08;;;;;;;1.37;0.77;;;;;;;;;;10542110;28;20223;-75
2021/07/08 22:04:10;;;;;;;5.80;2.10;;;;;;;;;;10546900;28;20212;-75
2021/07/08 22:09:14;;;;;;;3.87;1.60;;;;;;;;;;10547759;28;20238;-76
2021/07/08 22:14:20;;;;;;;8.20;2.93;;;;;;;;;;10517013;28;20647;-75
2021/07/08 22:19:23;;;;;;;3.80;1.83;;;;;;;;;;10542382;28;20218;-74
2021/07/08 22:24:45;;;;;;;4.17;2.20;;;;;;;;;;10540827;28;20775;-75
2021/07/08 22:29:49;;;;;;;2.97;1.63;;;;;;;;;;10537524;28;20688;-75
2021/07/08 22:34:52;;;;;;;4.20;1.93;;;;;;;;;;10544985;28;20187;-75
2021/07/08 22:39:54;;;;;;;4.23;1.40;;;;;;;;;;10538275;28;20748;-75
2021/07/08 22:44:58;;;;;;;3.40;1.20;;;;;;;;;;10546118;28;20295;-76
2021/07/08 22:50:01;;;;;;;3.30;1.57;;;;;;;;;;10542768;28;20587;-75
2021/07/08 22:55:04;;;;;;;4.17;1.70;;;;;;;;;;10546581;28;20353;-74
2021/07/08 23:00:09;;;;;;;3.97;2.00;;;;;;;;;;10531164;28;20222;-74
2021/07/08 23:05:14;;;;;;;4.50;1.80;;;;;;;;;;10549961;28;20298;-75
2021/07/08 23:10:16;;;;;;;4.80;1.90;;;;;;;;;;10532199;28;22073;-73
2021/07/08 23:15:20;;;;;;;3.93;2.00;;;;;;;;;;10541452;28;20206;-74
2021/07/08 23:20:23;;;;;;;4.83;2.13;;;;;;;;;;10542069;28;20705;-76
2021/07/08 23:25:26;;;;;;;5.57;1.90;;;;;;;;;;10533520;28;20683;-74
2021/07/08 23:30:30;;;;;;;5.03;1.90;;;;;;;;;;10547864;28;20229;-77
2021/07/08 23:35:32;;;;;;;4.10;1.93;;;;;;;;;;10554594;28;20221;-75
2021/07/08 23:40:35;;;;;;;4.10;1.90;;;;;;;;;;10556079;28;20580;-75
